sensor_id;sensor_type;location;lat;lon;timestamp;pressure;altitude;pressure_sealevel;temperature;humidity
26178;BME280;13924;47.670;10.310;2023-04-12T00:00:40;93090;;;5.5;100.0
26178;BME280;13924;47.670;10.310;2023-04-12T00:15:40;93170;;;5.6;100.0
26178;BME280;13924;47.670;10.310;2023-04-12T00:30:41;93230;;;5.6;100.0
26178;BME280;13924;47.670;10.310;2023-04-12T00:45:41;93340;;;5.2;100.0
26178;BME280;13924;47.670;10.310;2023-04-12T01:00:42;93400;;;5.1;100.0
26178;BME280;13924;47.670;10.310;2023-04-12T01:01:26;93410;;;5.1;100.0
26178;BME280;13924;47.670;10.310;2023-04-12T01:15:52;93420;;;5.0;100.0
26178;BME280;13924;47.670;10.310;2023-04-12T01:30:43;93410;;;5.1;100.0
26178;BME280;13924;47.670;10.310;2023-04-12T01:45:45;93390;;;5.2;100.0
26178;BME280;13924;47.670;10.310;2023-04-12T02:00:44;93350;;;5.2;100.0
26178;BME280;13924;47.670;10.310;2023-04-12T02:15:44;93340;;;5.1;100.0
26178;BME280;13924;47.670;10.310;2023-04-12T02:30:44;93310;;;5.0;100.0
26178;BME280;13924;47.670;10.310;2023-04-12T02:45:45;93270;;;5.1;100.0
26178;BME280;13924;47.670;10.310;2023-04-12T03:00:46;93260;;;5.2;100.0
26178;BME280;13924;47.670;10.310;2023-04-12T03:15:47;93250;;;5.2;100.0
26178;BME280;13924;47.670;10.310;2023-04-12T03:30:46;93210;;;5.1;100.0
26178;BME280;13924;47.670;10.310;2023-04-12T03:45:47;93190;;;5.1;100.0
26178;BME280;13924;47.670;10.310;2023-04-12T04:00:48;93180;;;5.1;100.0
26178;BME280;13924;47.670;10.310;2023-04-12T04:15:50;93150;;;5.1;100.0
26178;BME280;13924;47.670;10.310;2023-04-12T04:30:48;93140;;;5.1;100.0
26178;BME280;13924;47.670;10.310;2023-04-12T04:45:51;93130;;;5.1;100.0
26178;BME280;13924;47.670;10.310;2023-04-12T04:50:26;93130;;;5.0;100.0
26178;BME280;13924;47.670;10.310;2023-04-12T05:05:26;93120;;;5.0;100.0
26178;BME280;13924;47.670;10.310;2023-04-12T05:20:27;93090;;;5.1;100.0
26178;BME280;13924;47.670;10.310;2023-04-12T05:35:28;93070;;;5.1;100.0
26178;BME280;13924;47.670;10.310;2023-04-12T05:50:28;93050;;;5.1;100.0
26178;BME280;13924;47.670;10.310;2023-04-12T06:05:29;93040;;;5.3;100.0
26178;BME280;13924;47.670;10.310;2023-04-12T06:20:30;93060;;;5.6;100.0
26178;BME280;13924;47.670;10.310;2023-04-12T06:35:31;93040;;;5.8;100.0
26178;BME280;13924;47.670;10.310;2023-04-12T06:50:30;93020;;;6.1;100.0
26178;BME280;13924;47.670;10.310;2023-04-12T07:05:31;92990;;;6.4;100.0
26178;BME280;13924;47.670;10.310;2023-04-12T07:20:31;92980;;;6.5;100.0
26178;BME280;13924;47.670;10.310;2023-04-12T07:35:34;92980;;;6.5;100.0
26178;BME280;13924;47.670;10.310;2023-04-12T07:50:32;92930;;;6.8;100.0
26178;BME280;13924;47.670;10.310;2023-04-12T08:05:33;92890;;;7.0;100.0
26178;BME280;13924;47.670;10.310;2023-04-12T08:20:33;92870;;;7.2;100.0
26178;BME280;13924;47.670;10.310;2023-04-12T08:35:33;92800;;;7.8;100.0
26178;BME280;13924;47.670;10.310;2023-04-12T08:50:34;92750;;;8.7;100.0
26178;BME280;13924;47.670;10.310;2023-04-12T09:05:35;92410;;;9.1;100.0
26178;BME280;13924;47.670;10.310;2023-04-12T09:20:35;92490;;;9.6;100.0
26178;BME280;13924;47.670;10.310;2023-04-12T09:35:40;92440;;;10.1;100.0
26178;BME280;13924;47.670;10.310;2023-04-12T09:50:45;92320;;;10.4;100.0
26178;BME280;13924;47.670;10.310;2023-04-12T10:05:40;92360;;;10.8;100.0
26178;BME280;13924;47.670;10.310;2023-04-12T10:20:40;92360;;;11.1;100.0
26178;BME280;13924;47.670;10.310;2023-04-12T10:35:50;92270;;;11.9;100.0
26178;BME280;13924;47.670;10.310;2023-04-12T10:50:42;92130;;;12.4;100.0
26178;BME280;13924;47.670;10.310;2023-04-12T11:05:59;92090;;;13.0;100.0
26178;BME280;13924;47.670;10.310;2023-04-12T11:20:44;92090;;;13.0;100.0
26178;BME280;13924;47.670;10.310;2023-04-12T11:35:45;92090;;;12.4;100.0
26178;BME280;13924;47.670;10.310;2023-04-12T11:50:45;92110;;;12.4;100.0
26178;BME280;13924;47.670;10.310;2023-04-12T12:05:46;92120;;;12.4;100.0
26178;BME280;13924;47.670;10.310;2023-04-12T12:20:48;92090;;;12.2;100.0
26178;BME280;13924;47.670;10.310;2023-04-12T12:35:46;92090;;;12.1;100.0
26178;BME280;13924;47.670;10.310;2023-04-12T12:50:46;92080;;;11.9;100.0
26178;BME280;13924;47.670;10.310;2023-04-12T13:05:47;92090;;;11.9;100.0
26178;BME280;13924;47.670;10.310;2023-04-12T13:20:48;92080;;;11.9;100.0
26178;BME280;13924;47.670;10.310;2023-04-12T13:35:50;92070;;;12.1;100.0
26178;BME280;13924;47.670;10.310;2023-04-12T13:50:49;92080;;;12.0;100.0
26178;BME280;13924;47.670;10.310;2023-04-12T14:05:49;92050;;;12.1;100.0
26178;BME280;13924;47.670;10.310;2023-04-12T14:20:51;92040;;;12.3;100.0
26178;BME280;13924;47.670;10.310;2023-04-12T14:35:50;92050;;;12.0;100.0
26178;BME280;13924;47.670;10.310;2023-04-12T14:50:50;92020;;;12.2;100.0
26178;BME280;13924;47.670;10.310;2023-04-12T15:05:51;92000;;;13.1;100.0
26178;BME280;13924;47.670;10.310;2023-04-12T15:20:51;92000;;;13.0;100.0
26178;BME280;13924;47.670;10.310;2023-04-12T15:35:53;91990;;;12.1;100.0
26178;BME280;13924;47.670;10.310;2023-04-12T15:50:54;92000;;;11.6;100.0
26178;BME280;13924;47.670;10.310;2023-04-12T16:05:53;91980;;;11.5;100.0
26178;BME280;13924;47.670;10.310;2023-04-12T16:20:53;91980;;;11.6;100.0
26178;BME280;13924;47.670;10.310;2023-04-12T16:35:54;92040;;;11.0;100.0
26178;BME280;13924;47.670;10.310;2023-04-12T16:50:54;92100;;;10.6;100.0
26178;BME280;13924;47.670;10.310;2023-04-12T17:05:55;92200;;;10.5;100.0
26178;BME280;13924;47.670;10.310;2023-04-12T17:20:55;92330;;;10.3;100.0
26178;BME280;13924;47.670;10.310;2023-04-12T17:35:56;92430;;;9.8;100.0
26178;BME280;13924;47.670;10.310;2023-04-12T17:50:58;92420;;;9.7;100.0
26178;BME280;13924;47.670;10.310;2023-04-12T18:05:57;92440;;;9.3;100.0
26178;BME280;13924;47.670;10.310;2023-04-12T18:20:57;92470;;;9.0;100.0
26178;BME280;13924;47.670;10.310;2023-04-12T18:35:58;92580;;;8.9;100.0
26178;BME280;13924;47.670;10.310;2023-04-12T18:50:59;92630;;;8.2;100.0
26178;BME280;13924;47.670;10.310;2023-04-12T19:05:59;92650;;;7.9;100.0
26178;BME280;13924;47.670;10.310;2023-04-12T19:21:00;92650;;;7.9;100.0
26178;BME280;13924;47.670;10.310;2023-04-12T19:36:00;92720;;;7.8;100.0
26178;BME280;13924;47.670;10.310;2023-04-12T19:51:01;92720;;;7.6;100.0
26178;BME280;13924;47.670;10.310;2023-04-12T20:06:01;92620;;;7.3;100.0
26178;BME280;13924;47.670;10.310;2023-04-12T20:21:02;92750;;;7.0;100.0
26178;BME280;13924;47.670;10.310;2023-04-12T20:36:04;92750;;;7.0;100.0
26178;BME280;13924;47.670;10.310;2023-04-12T20:51:03;92600;;;6.8;100.0
26178;BME280;13924;47.670;10.310;2023-04-12T21:06:07;92750;;;6.5;100.0
26178;BME280;13924;47.670;10.310;2023-04-12T21:21:04;92800;;;6.4;100.0
26178;BME280;13924;47.670;10.310;2023-04-12T21:36:05;92830;;;6.4;100.0
26178;BME280;13924;47.670;10.310;2023-04-12T21:51:05;92830;;;6.1;100.0
26178;BME280;13924;47.670;10.310;2023-04-12T22:00:39;92810;;;6.0;100.0
26178;BME280;13924;47.670;10.310;2023-04-12T22:15:32;92780;;;5.8;100.0
26178;BME280;13924;47.670;10.310;2023-04-12T22:30:34;92780;;;5.9;100.0
26178;BME280;13924;47.670;10.310;2023-04-12T22:45:35;92750;;;5.9;100.0
26178;BME280;13924;47.670;10.310;2023-04-12T23:00:37;92790;;;5.9;100.0
26178;BME280;13924;47.670;10.310;2023-04-12T23:15:36;92800;;;6.1;100.0
26178;BME280;13924;47.670;10.310;2023-04-12T23:30:37;92800;;;5.7;100.0
26178;BME280;13924;47.670;10.310;2023-04-12T23:45:37;92580;;;5.1;100.0
